sensor_id;sensor_type;location;lat;lon;timestamp;temperature;humidity
4399;DHT22;2213;49.720;7.296;2022-11-15T00:00:33;8.40;99.90
4399;DHT22;2213;49.720;7.296;2022-11-15T00:03:02;8.40;99.90
4399;DHT22;2213;49.720;7.296;2022-11-15T00:05:35;8.40;99.90
4399;DHT22;2213;49.720;7.296;2022-11-15T00:08:06;8.50;99.90
4399;DHT22;2213;49.720;7.296;2022-11-15T00:10:37;8.50;99.90
4399;DHT22;2213;49.720;7.296;2022-11-15T00:13:10;8.40;99.90
4399;DHT22;2213;49.720;7.296;2022-11-15T00:15:41;8.40;99.90
4399;DHT22;2213;49.720;7.296;2022-11-15T00:18:12;8.40;99.90
4399;DHT22;2213;49.720;7.296;2022-11-15T00:20:43;8.40;99.90
4399;DHT22;2213;49.720;7.296;2022-11-15T00:23:12;8.40;99.90
4399;DHT22;2213;49.720;7.296;2022-11-15T00:25:45;8.40;99.90
4399;DHT22;2213;49.720;7.296;2022-11-15T00:28:15;8.30;99.90
4399;DHT22;2213;49.720;7.296;2022-11-15T00:30:45;8.40;99.90
4399;DHT22;2213;49.720;7.296;2022-11-15T00:33:14;8.50;99.90
4399;DHT22;2213;49.720;7.296;2022-11-15T00:35:44;8.50;99.90
4399;DHT22;2213;49.720;7.296;2022-11-15T00:38:13;8.50;99.90
4399;DHT22;2213;49.720;7.296;2022-11-15T00:40:45;8.50;99.90
4399;DHT22;2213;49.720;7.296;2022-11-15T00:43:14;8.50;99.90
4399;DHT22;2213;49.720;7.296;2022-11-15T00:45:43;8.50;99.90
4399;DHT22;2213;49.720;7.296;2022-11-15T00:48:13;8.50;99.90
4399;DHT22;2213;49.720;7.296;2022-11-15T00:50:43;8.50;99.90
4399;DHT22;2213;49.720;7.296;2022-11-15T00:53:12;8.50;99.90
4399;DHT22;2213;49.720;7.296;2022-11-15T00:55:41;8.50;99.90
4399;DHT22;2213;49.720;7.296;2022-11-15T00:58:12;8.60;99.90
4399;DHT22;2213;49.720;7.296;2022-11-15T01:00:41;8.60;99.90
4399;DHT22;2213;49.720;7.296;2022-11-15T01:03:11;8.60;99.90
4399;DHT22;2213;49.720;7.296;2022-11-15T01:05:41;8.70;99.90
4399;DHT22;2213;49.720;7.296;2022-11-15T01:08:12;8.70;99.90
4399;DHT22;2213;49.720;7.296;2022-11-15T01:10:42;8.80;99.90
4399;DHT22;2213;49.720;7.296;2022-11-15T01:13:13;8.90;99.90
4399;DHT22;2213;49.720;7.296;2022-11-15T01:15:43;8.90;99.90
4399;DHT22;2213;49.720;7.296;2022-11-15T01:18:13;8.90;99.90
4399;DHT22;2213;49.720;7.296;2022-11-15T01:20:43;9.00;99.90
4399;DHT22;2213;49.720;7.296;2022-11-15T01:23:12;9.10;99.90
4399;DHT22;2213;49.720;7.296;2022-11-15T01:25:42;9.10;99.90
4399;DHT22;2213;49.720;7.296;2022-11-15T01:28:13;9.10;99.90
4399;DHT22;2213;49.720;7.296;2022-11-15T01:30:43;9.20;99.90
4399;DHT22;2213;49.720;7.296;2022-11-15T01:33:13;9.30;99.90
4399;DHT22;2213;49.720;7.296;2022-11-15T01:35:42;9.30;99.90
4399;DHT22;2213;49.720;7.296;2022-11-15T01:38:12;9.30;99.90
4399;DHT22;2213;49.720;7.296;2022-11-15T01:40:41;9.40;99.90
4399;DHT22;2213;49.720;7.296;2022-11-15T01:43:24;9.40;99.90
4399;DHT22;2213;49.720;7.296;2022-11-15T01:45:58;9.50;99.90
4399;DHT22;2213;49.720;7.296;2022-11-15T01:48:33;9.50;99.90
4399;DHT22;2213;49.720;7.296;2022-11-15T01:51:07;9.50;99.90
4399;DHT22;2213;49.720;7.296;2022-11-15T01:53:42;9.50;99.90
4399;DHT22;2213;49.720;7.296;2022-11-15T01:56:19;9.60;99.90
4399;DHT22;2213;49.720;7.296;2022-11-15T01:58:53;9.60;99.90
4399;DHT22;2213;49.720;7.296;2022-11-15T02:01:26;9.60;99.90
4399;DHT22;2213;49.720;7.296;2022-11-15T02:03:59;9.70;99.90
4399;DHT22;2213;49.720;7.296;2022-11-15T02:06:32;9.70;99.90
4399;DHT22;2213;49.720;7.296;2022-11-15T02:09:03;9.70;99.90
4399;DHT22;2213;49.720;7.296;2022-11-15T02:11:33;9.80;99.90
4399;DHT22;2213;49.720;7.296;2022-11-15T02:14:06;9.90;99.90
4399;DHT22;2213;49.720;7.296;2022-11-15T02:16:43;9.90;99.90
4399;DHT22;2213;49.720;7.296;2022-11-15T02:23:28;10.00;99.90
4399;DHT22;2213;49.720;7.296;2022-11-15T02:26:49;9.90;99.90
4399;DHT22;2213;49.720;7.296;2022-11-15T02:30:04;9.90;99.90
4399;DHT22;2213;49.720;7.296;2022-11-15T02:32:57;9.90;99.90
4399;DHT22;2213;49.720;7.296;2022-11-15T02:35:36;9.90;99.90
4399;DHT22;2213;49.720;7.296;2022-11-15T02:38:17;10.00;99.90
4399;DHT22;2213;49.720;7.296;2022-11-15T02:40:54;10.00;99.90
4399;DHT22;2213;49.720;7.296;2022-11-15T02:43:32;10.00;99.90
4399;DHT22;2213;49.720;7.296;2022-11-15T02:46:31;10.00;99.90
4399;DHT22;2213;49.720;7.296;2022-11-15T02:49:22;10.00;99.90
4399;DHT22;2213;49.720;7.296;2022-11-15T02:51:55;9.90;99.90
4399;DHT22;2213;49.720;7.296;2022-11-15T02:54:26;9.90;99.90
4399;DHT22;2213;49.720;7.296;2022-11-15T02:57:02;9.90;99.90
4399;DHT22;2213;49.720;7.296;2022-11-15T03:00:01;9.90;99.90
4399;DHT22;2213;49.720;7.296;2022-11-15T03:02:55;9.90;99.90
4399;DHT22;2213;49.720;7.296;2022-11-15T03:05:52;9.80;99.90
4399;DHT22;2213;49.720;7.296;2022-11-15T03:08:31;9.80;99.90
4399;DHT22;2213;49.720;7.296;2022-11-15T03:11:09;9.70;99.90
4399;DHT22;2213;49.720;7.296;2022-11-15T03:13:49;9.70;99.90
4399;DHT22;2213;49.720;7.296;2022-11-15T03:16:28;9.70;99.90
4399;DHT22;2213;49.720;7.296;2022-11-15T03:19:09;9.70;99.90
4399;DHT22;2213;49.720;7.296;2022-11-15T03:21:43;9.70;99.90
4399;DHT22;2213;49.720;7.296;2022-11-15T03:24:15;9.70;99.90
4399;DHT22;2213;49.720;7.296;2022-11-15T03:26:53;9.70;99.90
4399;DHT22;2213;49.720;7.296;2022-11-15T03:29:28;9.80;99.90
4399;DHT22;2213;49.720;7.296;2022-11-15T03:32:05;9.80;99.90
4399;DHT22;2213;49.720;7.296;2022-11-15T03:34:43;9.80;99.90
4399;DHT22;2213;49.720;7.296;2022-11-15T03:37:17;9.80;99.90
4399;DHT22;2213;49.720;7.296;2022-11-15T03:39:52;9.70;99.90
4399;DHT22;2213;49.720;7.296;2022-11-15T03:42:27;9.70;99.90
4399;DHT22;2213;49.720;7.296;2022-11-15T03:45:03;9.70;99.90
4399;DHT22;2213;49.720;7.296;2022-11-15T03:47:41;9.70;99.90
4399;DHT22;2213;49.720;7.296;2022-11-15T03:50:20;9.80;99.90
4399;DHT22;2213;49.720;7.296;2022-11-15T03:52:51;9.70;99.90
4399;DHT22;2213;49.720;7.296;2022-11-15T03:55:24;9.70;99.90
4399;DHT22;2213;49.720;7.296;2022-11-15T03:57:56;9.60;99.90
4399;DHT22;2213;49.720;7.296;2022-11-15T04:00:28;9.60;99.90
4399;DHT22;2213;49.720;7.296;2022-11-15T04:02:58;9.60;99.90
4399;DHT22;2213;49.720;7.296;2022-11-15T04:05:28;9.70;99.90
4399;DHT22;2213;49.720;7.296;2022-11-15T04:07:57;9.70;99.90
4399;DHT22;2213;49.720;7.296;2022-11-15T04:10:27;9.80;99.90
4399;DHT22;2213;49.720;7.296;2022-11-15T04:12:56;9.70;99.90
4399;DHT22;2213;49.720;7.296;2022-11-15T04:15:25;9.70;99.90
4399;DHT22;2213;49.720;7.296;2022-11-15T04:17:56;9.60;99.90
4399;DHT22;2213;49.720;7.296;2022-11-15T04:20:30;9.70;99.90
4399;DHT22;2213;49.720;7.296;2022-11-15T04:23:18;9.60;99.90
4399;DHT22;2213;49.720;7.296;2022-11-15T04:26:08;9.50;99.90
4399;DHT22;2213;49.720;7.296;2022-11-15T04:28:40;9.50;99.90
4399;DHT22;2213;49.720;7.296;2022-11-15T04:31:23;9.50;99.90
4399;DHT22;2213;49.720;7.296;2022-11-15T04:33:53;9.40;99.90
4399;DHT22;2213;49.720;7.296;2022-11-15T04:36:25;9.30;99.90
4399;DHT22;2213;49.720;7.296;2022-11-15T04:39:12;9.30;99.90
4399;DHT22;2213;49.720;7.296;2022-11-15T04:41:42;9.30;99.90
4399;DHT22;2213;49.720;7.296;2022-11-15T04:44:13;9.20;99.90
4399;DHT22;2213;49.720;7.296;2022-11-15T04:46:46;9.20;99.90
4399;DHT22;2213;49.720;7.296;2022-11-15T04:49:15;9.10;99.90
4399;DHT22;2213;49.720;7.296;2022-11-15T04:51:47;9.10;99.90
4399;DHT22;2213;49.720;7.296;2022-11-15T04:54:16;9.10;99.90
4399;DHT22;2213;49.720;7.296;2022-11-15T04:56:45;9.10;99.90
4399;DHT22;2213;49.720;7.296;2022-11-15T04:59:15;9.10;99.90
4399;DHT22;2213;49.720;7.296;2022-11-15T05:01:45;9.00;99.90
4399;DHT22;2213;49.720;7.296;2022-11-15T05:04:15;9.10;99.90
4399;DHT22;2213;49.720;7.296;2022-11-15T05:06:49;9.10;99.90
4399;DHT22;2213;49.720;7.296;2022-11-15T05:09:20;9.00;99.90
4399;DHT22;2213;49.720;7.296;2022-11-15T05:11:49;9.10;99.90
4399;DHT22;2213;49.720;7.296;2022-11-15T05:14:20;9.10;99.90
4399;DHT22;2213;49.720;7.296;2022-11-15T05:16:49;9.00;99.90
4399;DHT22;2213;49.720;7.296;2022-11-15T05:19:19;9.10;99.90
4399;DHT22;2213;49.720;7.296;2022-11-15T05:21:51;9.10;99.90
4399;DHT22;2213;49.720;7.296;2022-11-15T05:24:21;9.10;99.90
4399;DHT22;2213;49.720;7.296;2022-11-15T05:26:51;9.10;99.90
4399;DHT22;2213;49.720;7.296;2022-11-15T05:29:22;9.10;99.90
4399;DHT22;2213;49.720;7.296;2022-11-15T05:31:51;9.20;99.90
4399;DHT22;2213;49.720;7.296;2022-11-15T05:34:21;9.20;99.90
4399;DHT22;2213;49.720;7.296;2022-11-15T05:36:54;9.20;99.90
4399;DHT22;2213;49.720;7.296;2022-11-15T05:39:24;9.20;99.90
4399;DHT22;2213;49.720;7.296;2022-11-15T05:41:59;9.20;99.90
4399;DHT22;2213;49.720;7.296;2022-11-15T05:44:31;9.20;99.90
4399;DHT22;2213;49.720;7.296;2022-11-15T05:47:03;9.30;99.90
4399;DHT22;2213;49.720;7.296;2022-11-15T05:49:38;9.30;99.90
4399;DHT22;2213;49.720;7.296;2022-11-15T05:52:14;9.30;99.90
4399;DHT22;2213;49.720;7.296;2022-11-15T05:54:49;9.30;99.90
4399;DHT22;2213;49.720;7.296;2022-11-15T05:57:20;9.40;99.90
4399;DHT22;2213;49.720;7.296;2022-11-15T05:59:50;9.40;99.90
4399;DHT22;2213;49.720;7.296;2022-11-15T06:02:20;9.40;99.90
4399;DHT22;2213;49.720;7.296;2022-11-15T06:04:49;9.40;99.90
4399;DHT22;2213;49.720;7.296;2022-11-15T06:07:20;9.40;99.90
4399;DHT22;2213;49.720;7.296;2022-11-15T06:09:50;9.40;99.90
4399;DHT22;2213;49.720;7.296;2022-11-15T06:12:20;9.40;99.90
4399;DHT22;2213;49.720;7.296;2022-11-15T06:14:49;9.40;99.90
4399;DHT22;2213;49.720;7.296;2022-11-15T06:17:19;9.50;99.90
4399;DHT22;2213;49.720;7.296;2022-11-15T06:19:49;9.40;99.90
4399;DHT22;2213;49.720;7.296;2022-11-15T06:22:20;9.50;99.90
4399;DHT22;2213;49.720;7.296;2022-11-15T06:24:50;9.40;99.90
4399;DHT22;2213;49.720;7.296;2022-11-15T06:27:20;9.40;99.90
4399;DHT22;2213;49.720;7.296;2022-11-15T06:29:48;9.40;99.90
4399;DHT22;2213;49.720;7.296;2022-11-15T06:32:18;9.40;99.90
4399;DHT22;2213;49.720;7.296;2022-11-15T06:34:47;9.50;99.90
4399;DHT22;2213;49.720;7.296;2022-11-15T06:37:19;9.50;99.90
4399;DHT22;2213;49.720;7.296;2022-11-15T06:39:49;9.40;99.90
4399;DHT22;2213;49.720;7.296;2022-11-15T06:42:18;9.30;99.90
4399;DHT22;2213;49.720;7.296;2022-11-15T06:44:48;9.40;99.90
4399;DHT22;2213;49.720;7.296;2022-11-15T06:47:18;9.40;99.90
4399;DHT22;2213;49.720;7.296;2022-11-15T06:49:47;9.40;99.90
4399;DHT22;2213;49.720;7.296;2022-11-15T06:52:17;9.40;99.90
4399;DHT22;2213;49.720;7.296;2022-11-15T06:54:49;9.30;99.90
4399;DHT22;2213;49.720;7.296;2022-11-15T06:57:17;9.40;99.90
4399;DHT22;2213;49.720;7.296;2022-11-15T06:59:48;9.30;99.90
4399;DHT22;2213;49.720;7.296;2022-11-15T07:02:17;9.40;99.90
4399;DHT22;2213;49.720;7.296;2022-11-15T07:04:46;9.40;99.90
4399;DHT22;2213;49.720;7.296;2022-11-15T07:07:16;9.30;99.90
4399;DHT22;2213;49.720;7.296;2022-11-15T07:09:47;9.30;99.90
4399;DHT22;2213;49.720;7.296;2022-11-15T07:12:16;9.40;99.90
4399;DHT22;2213;49.720;7.296;2022-11-15T07:14:46;9.30;99.90
4399;DHT22;2213;49.720;7.296;2022-11-15T07:17:15;9.30;99.90
4399;DHT22;2213;49.720;7.296;2022-11-15T07:19:46;9.40;99.90
4399;DHT22;2213;49.720;7.296;2022-11-15T07:22:16;9.40;99.90
4399;DHT22;2213;49.720;7.296;2022-11-15T07:24:46;9.40;99.90
4399;DHT22;2213;49.720;7.296;2022-11-15T07:27:16;9.40;99.90
4399;DHT22;2213;49.720;7.296;2022-11-15T07:29:46;9.40;99.90
4399;DHT22;2213;49.720;7.296;2022-11-15T07:32:15;9.40;99.90
4399;DHT22;2213;49.720;7.296;2022-11-15T07:34:46;9.40;99.90
4399;DHT22;2213;49.720;7.296;2022-11-15T07:37:15;9.40;99.90
4399;DHT22;2213;49.720;7.296;2022-11-15T07:39:45;9.40;99.90
4399;DHT22;2213;49.720;7.296;2022-11-15T07:42:17;9.50;99.90
4399;DHT22;2213;49.720;7.296;2022-11-15T07:45:05;9.40;99.90
4399;DHT22;2213;49.720;7.296;2022-11-15T07:47:35;9.40;99.90
4399;DHT22;2213;49.720;7.296;2022-11-15T07:50:05;9.40;99.90
4399;DHT22;2213;49.720;7.296;2022-11-15T07:52:37;9.40;99.90
4399;DHT22;2213;49.720;7.296;2022-11-15T07:55:09;9.50;99.90
4399;DHT22;2213;49.720;7.296;2022-11-15T07:57:38;9.50;99.90
4399;DHT22;2213;49.720;7.296;2022-11-15T08:00:10;9.60;99.90
4399;DHT22;2213;49.720;7.296;2022-11-15T08:02:40;9.70;99.90
4399;DHT22;2213;49.720;7.296;2022-11-15T08:05:10;9.70;99.90
4399;DHT22;2213;49.720;7.296;2022-11-15T08:07:40;9.70;99.90
4399;DHT22;2213;49.720;7.296;2022-11-15T08:10:11;9.70;99.90
4399;DHT22;2213;49.720;7.296;2022-11-15T08:12:43;9.70;99.90
4399;DHT22;2213;49.720;7.296;2022-11-15T08:15:16;9.70;99.90
4399;DHT22;2213;49.720;7.296;2022-11-15T08:17:45;9.70;99.90
4399;DHT22;2213;49.720;7.296;2022-11-15T08:20:15;9.80;99.90
4399;DHT22;2213;49.720;7.296;2022-11-15T08:22:44;9.80;99.90
4399;DHT22;2213;49.720;7.296;2022-11-15T08:25:16;9.80;99.90
4399;DHT22;2213;49.720;7.296;2022-11-15T08:27:47;9.80;99.90
4399;DHT22;2213;49.720;7.296;2022-11-15T08:30:19;9.80;99.90
4399;DHT22;2213;49.720;7.296;2022-11-15T08:32:48;9.90;99.90
4399;DHT22;2213;49.720;7.296;2022-11-15T08:35:18;10.00;99.90
4399;DHT22;2213;49.720;7.296;2022-11-15T08:37:55;9.90;99.90
4399;DHT22;2213;49.720;7.296;2022-11-15T08:40:26;9.90;99.90
4399;DHT22;2213;49.720;7.296;2022-11-15T08:42:57;10.00;99.90
4399;DHT22;2213;49.720;7.296;2022-11-15T08:45:29;10.00;99.90
4399;DHT22;2213;49.720;7.296;2022-11-15T08:48:00;10.00;99.90
4399;DHT22;2213;49.720;7.296;2022-11-15T08:50:30;10.10;99.90
4399;DHT22;2213;49.720;7.296;2022-11-15T08:53:04;10.00;99.90
4399;DHT22;2213;49.720;7.296;2022-11-15T08:55:38;10.10;99.90
4399;DHT22;2213;49.720;7.296;2022-11-15T08:58:08;10.10;99.90
4399;DHT22;2213;49.720;7.296;2022-11-15T09:00:38;10.10;99.90
4399;DHT22;2213;49.720;7.296;2022-11-15T09:03:08;10.10;99.90
4399;DHT22;2213;49.720;7.296;2022-11-15T09:05:37;10.20;99.90
4399;DHT22;2213;49.720;7.296;2022-11-15T09:08:06;10.20;99.90
4399;DHT22;2213;49.720;7.296;2022-11-15T09:10:57;10.20;99.90
4399;DHT22;2213;49.720;7.296;2022-11-15T09:13:26;10.30;99.90
4399;DHT22;2213;49.720;7.296;2022-11-15T09:15:57;10.20;99.90
4399;DHT22;2213;49.720;7.296;2022-11-15T09:18:27;10.20;99.90
4399;DHT22;2213;49.720;7.296;2022-11-15T09:20:57;10.40;99.90
4399;DHT22;2213;49.720;7.296;2022-11-15T09:23:27;10.40;99.90
4399;DHT22;2213;49.720;7.296;2022-11-15T09:26:02;10.50;99.90
4399;DHT22;2213;49.720;7.296;2022-11-15T09:28:32;10.40;99.90
4399;DHT22;2213;49.720;7.296;2022-11-15T09:31:04;10.50;99.90
4399;DHT22;2213;49.720;7.296;2022-11-15T09:33:34;10.60;99.90
4399;DHT22;2213;49.720;7.296;2022-11-15T09:36:05;10.50;99.90
4399;DHT22;2213;49.720;7.296;2022-11-15T09:38:36;10.50;99.90
4399;DHT22;2213;49.720;7.296;2022-11-15T09:41:22;10.60;99.90
4399;DHT22;2213;49.720;7.296;2022-11-15T09:44:10;10.50;99.90
4399;DHT22;2213;49.720;7.296;2022-11-15T09:47:07;10.60;99.90
4399;DHT22;2213;49.720;7.296;2022-11-15T09:49:58;10.60;99.90
4399;DHT22;2213;49.720;7.296;2022-11-15T09:52:30;10.70;99.90
4399;DHT22;2213;49.720;7.296;2022-11-15T09:55:04;10.70;99.90
4399;DHT22;2213;49.720;7.296;2022-11-15T09:57:45;10.80;99.90
4399;DHT22;2213;49.720;7.296;2022-11-15T10:00:29;10.80;99.90
4399;DHT22;2213;49.720;7.296;2022-11-15T10:03:26;10.80;99.90
4399;DHT22;2213;49.720;7.296;2022-11-15T10:06:01;10.90;99.90
4399;DHT22;2213;49.720;7.296;2022-11-15T10:08:51;10.90;99.90
4399;DHT22;2213;49.720;7.296;2022-11-15T10:11:31;11.10;99.90
4399;DHT22;2213;49.720;7.296;2022-11-15T10:14:11;11.10;99.90
4399;DHT22;2213;49.720;7.296;2022-11-15T10:17:19;11.10;99.90
4399;DHT22;2213;49.720;7.296;2022-11-15T10:20:05;11.10;99.90
4399;DHT22;2213;49.720;7.296;2022-11-15T10:22:46;11.20;99.90
4399;DHT22;2213;49.720;7.296;2022-11-15T10:25:19;11.20;99.90
4399;DHT22;2213;49.720;7.296;2022-11-15T10:27:56;11.10;99.90
4399;DHT22;2213;49.720;7.296;2022-11-15T10:30:34;11.10;99.90
4399;DHT22;2213;49.720;7.296;2022-11-15T10:33:23;11.10;99.90
4399;DHT22;2213;49.720;7.296;2022-11-15T10:36:17;11.20;99.90
4399;DHT22;2213;49.720;7.296;2022-11-15T10:38:56;11.20;99.90
4399;DHT22;2213;49.720;7.296;2022-11-15T10:41:36;11.30;99.90
4399;DHT22;2213;49.720;7.296;2022-11-15T10:44:25;11.40;99.90
4399;DHT22;2213;49.720;7.296;2022-11-15T10:47:27;11.50;99.90
4399;DHT22;2213;49.720;7.296;2022-11-15T10:50:26;11.40;99.90
4399;DHT22;2213;49.720;7.296;2022-11-15T10:52:57;11.50;99.90
4399;DHT22;2213;49.720;7.296;2022-11-15T10:55:31;11.60;99.90
4399;DHT22;2213;49.720;7.296;2022-11-15T10:58:05;11.60;99.90
4399;DHT22;2213;49.720;7.296;2022-11-15T11:00:48;11.50;99.90
4399;DHT22;2213;49.720;7.296;2022-11-15T11:03:28;11.60;99.90
4399;DHT22;2213;49.720;7.296;2022-11-15T11:06:07;11.70;99.90
4399;DHT22;2213;49.720;7.296;2022-11-15T11:08:39;11.90;99.90
4399;DHT22;2213;49.720;7.296;2022-11-15T11:11:09;11.70;99.90
4399;DHT22;2213;49.720;7.296;2022-11-15T11:13:39;11.90;99.90
4399;DHT22;2213;49.720;7.296;2022-11-15T11:19:40;11.90;99.90
4399;DHT22;2213;49.720;7.296;2022-11-15T11:22:23;12.00;99.90
4399;DHT22;2213;49.720;7.296;2022-11-15T11:25:11;12.00;99.90
4399;DHT22;2213;49.720;7.296;2022-11-15T11:27:58;12.10;99.90
4399;DHT22;2213;49.720;7.296;2022-11-15T11:30:47;12.10;99.90
4399;DHT22;2213;49.720;7.296;2022-11-15T11:33:29;12.10;99.90
4399;DHT22;2213;49.720;7.296;2022-11-15T11:36:13;12.20;99.90
4399;DHT22;2213;49.720;7.296;2022-11-15T11:38:56;12.30;99.90
4399;DHT22;2213;49.720;7.296;2022-11-15T11:41:49;12.20;99.90
4399;DHT22;2213;49.720;7.296;2022-11-15T11:44:33;12.30;99.90
4399;DHT22;2213;49.720;7.296;2022-11-15T11:47:30;12.40;99.90
4399;DHT22;2213;49.720;7.296;2022-11-15T11:50:11;12.30;99.90
4399;DHT22;2213;49.720;7.296;2022-11-15T11:52:55;12.30;99.90
4399;DHT22;2213;49.720;7.296;2022-11-15T11:55:33;12.40;99.90
4399;DHT22;2213;49.720;7.296;2022-11-15T11:58:12;12.50;99.90
4399;DHT22;2213;49.720;7.296;2022-11-15T12:00:49;12.50;99.90
4399;DHT22;2213;49.720;7.296;2022-11-15T12:03:25;12.50;99.90
4399;DHT22;2213;49.720;7.296;2022-11-15T12:06:01;12.60;99.90
4399;DHT22;2213;49.720;7.296;2022-11-15T12:08:43;12.60;99.90
4399;DHT22;2213;49.720;7.296;2022-11-15T12:11:20;12.50;99.90
4399;DHT22;2213;49.720;7.296;2022-11-15T12:13:58;12.60;99.90
4399;DHT22;2213;49.720;7.296;2022-11-15T12:16:32;12.60;99.90
4399;DHT22;2213;49.720;7.296;2022-11-15T12:19:04;12.70;99.90
4399;DHT22;2213;49.720;7.296;2022-11-15T12:21:39;12.70;99.90
4399;DHT22;2213;49.720;7.296;2022-11-15T12:24:18;12.70;99.90
4399;DHT22;2213;49.720;7.296;2022-11-15T12:26:56;12.70;99.90
4399;DHT22;2213;49.720;7.296;2022-11-15T12:29:35;12.70;99.90
4399;DHT22;2213;49.720;7.296;2022-11-15T12:32:17;12.80;99.90
4399;DHT22;2213;49.720;7.296;2022-11-15T12:34:54;12.80;99.90
4399;DHT22;2213;49.720;7.296;2022-11-15T12:40:26;12.80;99.90
4399;DHT22;2213;49.720;7.296;2022-11-15T12:46:18;12.80;99.90
4399;DHT22;2213;49.720;7.296;2022-11-15T12:49:44;12.80;99.90
4399;DHT22;2213;49.720;7.296;2022-11-15T12:52:14;12.80;99.90
4399;DHT22;2213;49.720;7.296;2022-11-15T12:55:30;12.80;99.90
4399;DHT22;2213;49.720;7.296;2022-11-15T12:58:24;12.80;99.90
4399;DHT22;2213;49.720;7.296;2022-11-15T13:01:00;12.80;99.90
4399;DHT22;2213;49.720;7.296;2022-11-15T13:03:28;12.80;99.90
4399;DHT22;2213;49.720;7.296;2022-11-15T13:06:36;12.90;99.90
4399;DHT22;2213;49.720;7.296;2022-11-15T13:12:56;12.90;99.90
4399;DHT22;2213;49.720;7.296;2022-11-15T13:15:38;12.90;99.90
4399;DHT22;2213;49.720;7.296;2022-11-15T13:18:28;13.00;99.90
4399;DHT22;2213;49.720;7.296;2022-11-15T13:21:04;13.00;99.90
4399;DHT22;2213;49.720;7.296;2022-11-15T13:24:09;13.00;99.90
4399;DHT22;2213;49.720;7.296;2022-11-15T13:26:40;13.00;99.90
4399;DHT22;2213;49.720;7.296;2022-11-15T13:29:19;13.10;99.90
4399;DHT22;2213;49.720;7.296;2022-11-15T13:31:50;13.10;99.90
4399;DHT22;2213;49.720;7.296;2022-11-15T13:34:28;13.10;99.90
4399;DHT22;2213;49.720;7.296;2022-11-15T13:37:38;13.10;99.90
4399;DHT22;2213;49.720;7.296;2022-11-15T13:40:20;13.10;99.90
4399;DHT22;2213;49.720;7.296;2022-11-15T13:42:52;13.20;99.90
4399;DHT22;2213;49.720;7.296;2022-11-15T13:45:23;13.10;99.90
4399;DHT22;2213;49.720;7.296;2022-11-15T13:47:56;13.10;99.90
4399;DHT22;2213;49.720;7.296;2022-11-15T13:50:28;13.10;99.90
4399;DHT22;2213;49.720;7.296;2022-11-15T13:53:03;13.20;99.90
4399;DHT22;2213;49.720;7.296;2022-11-15T13:55:34;13.20;99.90
4399;DHT22;2213;49.720;7.296;2022-11-15T13:58:04;13.30;99.90
4399;DHT22;2213;49.720;7.296;2022-11-15T14:00:38;13.20;99.90
4399;DHT22;2213;49.720;7.296;2022-11-15T14:03:17;13.30;99.90
4399;DHT22;2213;49.720;7.296;2022-11-15T14:06:03;13.30;99.90
4399;DHT22;2213;49.720;7.296;2022-11-15T14:08:35;13.20;99.90
4399;DHT22;2213;49.720;7.296;2022-11-15T14:11:12;13.30;99.90
4399;DHT22;2213;49.720;7.296;2022-11-15T14:14:02;13.30;99.90
4399;DHT22;2213;49.720;7.296;2022-11-15T14:16:43;13.20;99.90
4399;DHT22;2213;49.720;7.296;2022-11-15T14:19:37;13.30;99.90
4399;DHT22;2213;49.720;7.296;2022-11-15T14:22:14;13.20;99.90
4399;DHT22;2213;49.720;7.296;2022-11-15T14:25:05;13.20;99.90
4399;DHT22;2213;49.720;7.296;2022-11-15T14:27:44;13.20;99.90
4399;DHT22;2213;49.720;7.296;2022-11-15T14:30:34;13.20;99.90
4399;DHT22;2213;49.720;7.296;2022-11-15T14:33:19;13.20;99.90
4399;DHT22;2213;49.720;7.296;2022-11-15T14:35:52;13.20;99.90
4399;DHT22;2213;49.720;7.296;2022-11-15T14:38:23;13.20;99.90
4399;DHT22;2213;49.720;7.296;2022-11-15T14:40:54;13.20;99.90
4399;DHT22;2213;49.720;7.296;2022-11-15T14:43:24;13.10;99.90
4399;DHT22;2213;49.720;7.296;2022-11-15T14:45:53;13.10;99.90
4399;DHT22;2213;49.720;7.296;2022-11-15T14:48:23;13.10;99.90
4399;DHT22;2213;49.720;7.296;2022-11-15T14:50:53;13.10;99.90
4399;DHT22;2213;49.720;7.296;2022-11-15T14:53:23;13.10;99.90
4399;DHT22;2213;49.720;7.296;2022-11-15T14:55:54;13.00;99.90
4399;DHT22;2213;49.720;7.296;2022-11-15T14:58:24;13.00;99.90
4399;DHT22;2213;49.720;7.296;2022-11-15T15:00:54;13.00;99.90
4399;DHT22;2213;49.720;7.296;2022-11-15T15:03:24;12.90;99.90
4399;DHT22;2213;49.720;7.296;2022-11-15T15:05:53;12.90;99.90
4399;DHT22;2213;49.720;7.296;2022-11-15T15:08:23;12.90;99.90
4399;DHT22;2213;49.720;7.296;2022-11-15T15:10:53;12.80;99.90
4399;DHT22;2213;49.720;7.296;2022-11-15T15:13:23;12.90;99.90
4399;DHT22;2213;49.720;7.296;2022-11-15T15:15:54;12.80;99.90
4399;DHT22;2213;49.720;7.296;2022-11-15T15:18:25;12.80;99.90
4399;DHT22;2213;49.720;7.296;2022-11-15T15:20:57;12.80;99.90
4399;DHT22;2213;49.720;7.296;2022-11-15T15:23:30;12.90;99.90
4399;DHT22;2213;49.720;7.296;2022-11-15T15:25:59;12.80;99.90
4399;DHT22;2213;49.720;7.296;2022-11-15T15:28:28;12.80;99.90
4399;DHT22;2213;49.720;7.296;2022-11-15T15:31:01;12.80;99.90
4399;DHT22;2213;49.720;7.296;2022-11-15T15:33:32;12.80;99.90
4399;DHT22;2213;49.720;7.296;2022-11-15T15:36:02;12.70;99.90
4399;DHT22;2213;49.720;7.296;2022-11-15T15:38:32;12.70;99.90
4399;DHT22;2213;49.720;7.296;2022-11-15T15:41:03;12.70;99.90
4399;DHT22;2213;49.720;7.296;2022-11-15T15:43:33;12.60;99.90
4399;DHT22;2213;49.720;7.296;2022-11-15T15:46:03;12.60;99.90
4399;DHT22;2213;49.720;7.296;2022-11-15T15:48:34;12.60;99.90
4399;DHT22;2213;49.720;7.296;2022-11-15T15:51:05;12.50;99.90
4399;DHT22;2213;49.720;7.296;2022-11-15T15:53:44;12.40;99.90
4399;DHT22;2213;49.720;7.296;2022-11-15T15:56:13;12.40;99.90
4399;DHT22;2213;49.720;7.296;2022-11-15T15:58:43;12.30;99.90
4399;DHT22;2213;49.720;7.296;2022-11-15T16:01:11;12.20;99.90
4399;DHT22;2213;49.720;7.296;2022-11-15T16:03:41;12.20;99.90
4399;DHT22;2213;49.720;7.296;2022-11-15T16:06:35;12.20;99.90
4399;DHT22;2213;49.720;7.296;2022-11-15T16:09:09;12.10;99.90
4399;DHT22;2213;49.720;7.296;2022-11-15T16:11:45;12.00;99.90
4399;DHT22;2213;49.720;7.296;2022-11-15T16:14:14;11.90;99.90
4399;DHT22;2213;49.720;7.296;2022-11-15T16:16:44;12.10;99.90
4399;DHT22;2213;49.720;7.296;2022-11-15T16:19:15;12.10;99.90
4399;DHT22;2213;49.720;7.296;2022-11-15T16:21:44;12.00;99.90
4399;DHT22;2213;49.720;7.296;2022-11-15T16:24:12;12.00;99.90
4399;DHT22;2213;49.720;7.296;2022-11-15T16:26:41;11.90;99.90
4399;DHT22;2213;49.720;7.296;2022-11-15T16:29:11;12.00;99.90
4399;DHT22;2213;49.720;7.296;2022-11-15T16:31:39;11.90;99.90
4399;DHT22;2213;49.720;7.296;2022-11-15T16:34:09;11.90;99.90
4399;DHT22;2213;49.720;7.296;2022-11-15T16:36:41;11.80;99.90
4399;DHT22;2213;49.720;7.296;2022-11-15T16:39:11;11.80;99.90
4399;DHT22;2213;49.720;7.296;2022-11-15T16:41:42;11.80;99.90
4399;DHT22;2213;49.720;7.296;2022-11-15T16:44:14;11.80;99.90
4399;DHT22;2213;49.720;7.296;2022-11-15T16:46:44;11.80;99.90
4399;DHT22;2213;49.720;7.296;2022-11-15T16:49:18;11.80;99.90
4399;DHT22;2213;49.720;7.296;2022-11-15T16:51:50;11.70;99.90
4399;DHT22;2213;49.720;7.296;2022-11-15T16:54:19;11.80;99.90
4399;DHT22;2213;49.720;7.296;2022-11-15T16:56:49;11.70;99.90
4399;DHT22;2213;49.720;7.296;2022-11-15T16:59:18;11.80;99.90
4399;DHT22;2213;49.720;7.296;2022-11-15T17:01:48;11.70;99.90
4399;DHT22;2213;49.720;7.296;2022-11-15T17:04:20;11.70;99.90
4399;DHT22;2213;49.720;7.296;2022-11-15T17:06:51;11.80;99.90
4399;DHT22;2213;49.720;7.296;2022-11-15T17:09:22;11.70;99.90
4399;DHT22;2213;49.720;7.296;2022-11-15T17:11:52;11.70;99.90
4399;DHT22;2213;49.720;7.296;2022-11-15T17:14:21;11.70;99.90
4399;DHT22;2213;49.720;7.296;2022-11-15T17:16:50;11.70;99.90